Terminal Aerodrome Forecast
Issued by NWS Amarillo, TX

Home | Current Version | Previous Version | Text Only | Print | Product List | Glossary On
Versions: 1 2 3 4 5 6 7 8 9 10 11 12 13 14 15 16
865
FTUS44 KAMA 070520
TAFDHT
TAF
KDHT 070520Z 0706/0806 28008KT P6SM SKC
     FM070900 34011KT P6SM FEW300
     FM071700 05011KT P6SM SCT300=

USA.gov is the U.S. government's official web portal to all federal, state and local government web resources and services.